Terminal Aerodrome Forecast
Issued by NWS Denver/Boulder, CO

Home | Current Version | Previous Version | Text Only | Print | Product List | Glossary On
Versions: 1 2 3 4 5 6 7 8 9 10 11 12 13 14 15 16 17 18 19 20 21 22 23 24 25 26 27 28 29 30 31 32
000
FTUS45 KBOU 211741
TAFDEN
TAF
KDEN 211741Z 2118/2224 36017KT 1/2SM SN FZFG VV010
      TEMPO 2118/2120 3/4SM -SN BR OVC015
     FM212100 35022G34KT 1SM -SN BLSN SCT010 OVC020
     FM220000 34018G26KT P6SM VCSH BKN012 OVC020
      TEMPO 2200/2203 2SM -SN BKN006 OVC012
     FM220300 32014G22KT P6SM SCT020 BKN050
     FM221000 27012KT P6SM SCT040 BKN140
     FM221300 25012KT P6SM FEW140 SCT200=

USA.gov is the U.S. government's official web portal to all federal, state and local government web resources and services.